sensor_id;sensor_type;location;lat;lon;timestamp;temperature;humidity
47354;DHT22;50657;48.830;2.282;2022-10-31T00:00:15;18.10;65.00
47354;DHT22;50657;48.830;2.282;2022-10-31T00:02:42;18.10;65.10
47354;DHT22;50657;48.830;2.282;2022-10-31T00:05:11;18.00;65.20
47354;DHT22;50657;48.830;2.282;2022-10-31T00:07:38;18.00;65.20
47354;DHT22;50657;48.830;2.282;2022-10-31T00:10:06;18.00;65.30
47354;DHT22;50657;48.830;2.282;2022-10-31T00:12:33;17.90;65.30
47354;DHT22;50657;48.830;2.282;2022-10-31T00:15:00;17.90;65.40
47354;DHT22;50657;48.830;2.282;2022-10-31T00:17:27;17.90;65.50
47354;DHT22;50657;48.830;2.282;2022-10-31T00:19:54;17.80;65.50
47354;DHT22;50657;48.830;2.282;2022-10-31T00:22:24;17.80;66.20
47354;DHT22;50657;48.830;2.282;2022-10-31T00:24:51;17.80;65.80
47354;DHT22;50657;48.830;2.282;2022-10-31T00:27:18;17.70;65.90
47354;DHT22;50657;48.830;2.282;2022-10-31T00:29:45;17.70;66.00
47354;DHT22;50657;48.830;2.282;2022-10-31T00:32:13;17.70;66.10
47354;DHT22;50657;48.830;2.282;2022-10-31T00:34:40;17.70;66.20
47354;DHT22;50657;48.830;2.282;2022-10-31T00:37:07;17.60;66.20
47354;DHT22;50657;48.830;2.282;2022-10-31T00:39:36;17.60;66.20
47354;DHT22;50657;48.830;2.282;2022-10-31T00:42:03;17.60;66.30
47354;DHT22;50657;48.830;2.282;2022-10-31T00:44:30;17.60;66.30
47354;DHT22;50657;48.830;2.282;2022-10-31T00:46:58;17.50;66.40
47354;DHT22;50657;48.830;2.282;2022-10-31T00:49:24;17.50;66.40
47354;DHT22;50657;48.830;2.282;2022-10-31T00:51:51;17.50;66.40
47354;DHT22;50657;48.830;2.282;2022-10-31T00:54:19;17.50;66.50
47354;DHT22;50657;48.830;2.282;2022-10-31T00:56:47;17.50;66.50
47354;DHT22;50657;48.830;2.282;2022-10-31T00:59:14;17.40;66.60
47354;DHT22;50657;48.830;2.282;2022-10-31T01:01:41;17.40;66.70
47354;DHT22;50657;48.830;2.282;2022-10-31T01:04:08;17.40;66.60
47354;DHT22;50657;48.830;2.282;2022-10-31T01:06:35;17.40;66.70
47354;DHT22;50657;48.830;2.282;2022-10-31T01:09:02;17.40;66.80
47354;DHT22;50657;48.830;2.282;2022-10-31T01:11:29;17.30;66.80
47354;DHT22;50657;48.830;2.282;2022-10-31T01:13:58;17.30;66.90
47354;DHT22;50657;48.830;2.282;2022-10-31T01:16:26;17.30;67.00
47354;DHT22;50657;48.830;2.282;2022-10-31T01:18:56;17.30;67.00
47354;DHT22;50657;48.830;2.282;2022-10-31T01:21:27;17.30;67.10
47354;DHT22;50657;48.830;2.282;2022-10-31T01:23:57;17.30;67.10
47354;DHT22;50657;48.830;2.282;2022-10-31T01:26:26;17.30;67.10
47354;DHT22;50657;48.830;2.282;2022-10-31T01:28:55;17.30;67.20
47354;DHT22;50657;48.830;2.282;2022-10-31T01:31:25;17.30;67.20
47354;DHT22;50657;48.830;2.282;2022-10-31T01:33:53;17.40;67.20
47354;DHT22;50657;48.830;2.282;2022-10-31T01:36:22;17.40;67.20
47354;DHT22;50657;48.830;2.282;2022-10-31T01:38:53;17.40;67.20
47354;DHT22;50657;48.830;2.282;2022-10-31T01:41:25;17.30;67.20
47354;DHT22;50657;48.830;2.282;2022-10-31T01:43:54;17.30;67.20
47354;DHT22;50657;48.830;2.282;2022-10-31T01:46:25;17.30;67.20
47354;DHT22;50657;48.830;2.282;2022-10-31T01:48:55;17.30;67.30
47354;DHT22;50657;48.830;2.282;2022-10-31T01:51:27;17.30;67.30
47354;DHT22;50657;48.830;2.282;2022-10-31T01:53:58;17.30;67.30
47354;DHT22;50657;48.830;2.282;2022-10-31T01:56:27;17.30;67.40
47354;DHT22;50657;48.830;2.282;2022-10-31T01:58:55;17.30;67.40
47354;DHT22;50657;48.830;2.282;2022-10-31T02:01:24;17.30;67.40
47354;DHT22;50657;48.830;2.282;2022-10-31T02:03:52;17.30;67.40
47354;DHT22;50657;48.830;2.282;2022-10-31T02:06:27;17.30;67.40
47354;DHT22;50657;48.830;2.282;2022-10-31T02:08:57;17.30;67.50
47354;DHT22;50657;48.830;2.282;2022-10-31T02:11:25;17.20;67.50
47354;DHT22;50657;48.830;2.282;2022-10-31T02:13:52;17.30;67.50
47354;DHT22;50657;48.830;2.282;2022-10-31T02:16:21;17.30;67.60
47354;DHT22;50657;48.830;2.282;2022-10-31T02:18:51;17.30;67.60
47354;DHT22;50657;48.830;2.282;2022-10-31T02:21:22;17.20;67.60
47354;DHT22;50657;48.830;2.282;2022-10-31T02:24:07;17.30;67.70
47354;DHT22;50657;48.830;2.282;2022-10-31T02:26:57;17.30;67.80
47354;DHT22;50657;48.830;2.282;2022-10-31T02:30:06;17.30;67.70
47354;DHT22;50657;48.830;2.282;2022-10-31T02:35:30;17.30;67.80
47354;DHT22;50657;48.830;2.282;2022-10-31T02:38:01;17.30;67.80
47354;DHT22;50657;48.830;2.282;2022-10-31T02:40:33;17.20;67.60
47354;DHT22;50657;48.830;2.282;2022-10-31T02:43:27;17.20;67.90
47354;DHT22;50657;48.830;2.282;2022-10-31T02:46:01;17.20;67.90
47354;DHT22;50657;48.830;2.282;2022-10-31T02:48:37;17.30;68.00
47354;DHT22;50657;48.830;2.282;2022-10-31T02:51:05;17.30;68.00
47354;DHT22;50657;48.830;2.282;2022-10-31T02:53:36;17.30;68.00
47354;DHT22;50657;48.830;2.282;2022-10-31T02:56:06;17.30;67.90
47354;DHT22;50657;48.830;2.282;2022-10-31T02:58:37;17.30;67.90
47354;DHT22;50657;48.830;2.282;2022-10-31T03:01:47;17.30;67.90
47354;DHT22;50657;48.830;2.282;2022-10-31T03:04:44;17.30;67.80
47354;DHT22;50657;48.830;2.282;2022-10-31T03:07:21;17.30;67.90
47354;DHT22;50657;48.830;2.282;2022-10-31T03:09:55;17.30;68.00
47354;DHT22;50657;48.830;2.282;2022-10-31T03:12:29;17.30;68.10
47354;DHT22;50657;48.830;2.282;2022-10-31T03:15:07;17.30;68.10
47354;DHT22;50657;48.830;2.282;2022-10-31T03:17:45;17.30;68.10
47354;DHT22;50657;48.830;2.282;2022-10-31T03:20:21;17.30;68.10
47354;DHT22;50657;48.830;2.282;2022-10-31T03:22:49;17.30;68.20
47354;DHT22;50657;48.830;2.282;2022-10-31T03:25:17;17.30;68.20
47354;DHT22;50657;48.830;2.282;2022-10-31T03:27:46;17.40;68.30
47354;DHT22;50657;48.830;2.282;2022-10-31T03:30:14;17.40;68.30
47354;DHT22;50657;48.830;2.282;2022-10-31T03:32:58;17.40;68.40
47354;DHT22;50657;48.830;2.282;2022-10-31T03:35:30;17.40;68.40
47354;DHT22;50657;48.830;2.282;2022-10-31T03:38:00;17.40;68.40
47354;DHT22;50657;48.830;2.282;2022-10-31T03:40:30;17.40;68.40
47354;DHT22;50657;48.830;2.282;2022-10-31T03:43:02;17.40;68.50
47354;DHT22;50657;48.830;2.282;2022-10-31T03:45:32;17.40;68.50
47354;DHT22;50657;48.830;2.282;2022-10-31T03:48:03;17.40;68.50
47354;DHT22;50657;48.830;2.282;2022-10-31T03:50:39;17.40;68.50
47354;DHT22;50657;48.830;2.282;2022-10-31T03:53:11;17.40;68.60
47354;DHT22;50657;48.830;2.282;2022-10-31T03:55:42;17.40;68.60
47354;DHT22;50657;48.830;2.282;2022-10-31T03:58:17;17.40;68.70
47354;DHT22;50657;48.830;2.282;2022-10-31T04:00:47;17.40;68.70
47354;DHT22;50657;48.830;2.282;2022-10-31T04:03:18;17.40;68.80
47354;DHT22;50657;48.830;2.282;2022-10-31T04:05:53;17.40;68.80
47354;DHT22;50657;48.830;2.282;2022-10-31T04:08:24;17.40;68.90
47354;DHT22;50657;48.830;2.282;2022-10-31T04:10:54;17.50;68.90
47354;DHT22;50657;48.830;2.282;2022-10-31T04:13:25;17.50;69.00
47354;DHT22;50657;48.830;2.282;2022-10-31T04:16:09;17.50;69.00
47354;DHT22;50657;48.830;2.282;2022-10-31T04:18:36;17.50;69.00
47354;DHT22;50657;48.830;2.282;2022-10-31T04:21:07;17.50;69.00
47354;DHT22;50657;48.830;2.282;2022-10-31T04:23:35;17.50;69.00
47354;DHT22;50657;48.830;2.282;2022-10-31T04:26:22;17.50;69.00
47354;DHT22;50657;48.830;2.282;2022-10-31T04:28:50;17.50;68.90
47354;DHT22;50657;48.830;2.282;2022-10-31T04:31:18;17.50;68.90
47354;DHT22;50657;48.830;2.282;2022-10-31T04:33:47;17.50;68.90
47354;DHT22;50657;48.830;2.282;2022-10-31T04:36:15;17.50;68.90
47354;DHT22;50657;48.830;2.282;2022-10-31T04:38:42;17.50;68.90
47354;DHT22;50657;48.830;2.282;2022-10-31T04:41:25;17.50;69.00
47354;DHT22;50657;48.830;2.282;2022-10-31T04:43:58;17.50;69.00
47354;DHT22;50657;48.830;2.282;2022-10-31T04:46:26;17.50;69.10
47354;DHT22;50657;48.830;2.282;2022-10-31T04:48:55;17.50;69.10
47354;DHT22;50657;48.830;2.282;2022-10-31T04:51:24;17.50;69.10
47354;DHT22;50657;48.830;2.282;2022-10-31T04:53:52;17.40;69.10
47354;DHT22;50657;48.830;2.282;2022-10-31T04:56:42;17.50;69.20
47354;DHT22;50657;48.830;2.282;2022-10-31T04:59:14;17.40;69.10
47354;DHT22;50657;48.830;2.282;2022-10-31T05:01:49;17.40;69.20
47354;DHT22;50657;48.830;2.282;2022-10-31T05:04:21;17.40;69.20
47354;DHT22;50657;48.830;2.282;2022-10-31T05:06:49;17.50;69.30
47354;DHT22;50657;48.830;2.282;2022-10-31T05:09:16;17.50;69.20
47354;DHT22;50657;48.830;2.282;2022-10-31T05:11:43;17.50;69.20
47354;DHT22;50657;48.830;2.282;2022-10-31T05:14:36;17.50;69.20
47354;DHT22;50657;48.830;2.282;2022-10-31T05:17:22;17.50;69.20
47354;DHT22;50657;48.830;2.282;2022-10-31T05:20:08;17.50;69.20
47354;DHT22;50657;48.830;2.282;2022-10-31T05:22:57;17.60;69.20
47354;DHT22;50657;48.830;2.282;2022-10-31T05:25:25;17.60;69.00
47354;DHT22;50657;48.830;2.282;2022-10-31T05:27:54;17.60;68.80
47354;DHT22;50657;48.830;2.282;2022-10-31T05:30:23;17.60;68.60
47354;DHT22;50657;48.830;2.282;2022-10-31T05:32:52;17.60;68.50
47354;DHT22;50657;48.830;2.282;2022-10-31T05:35:37;17.60;68.40
47354;DHT22;50657;48.830;2.282;2022-10-31T05:38:24;17.70;68.40
47354;DHT22;50657;48.830;2.282;2022-10-31T05:40:54;17.70;68.40
47354;DHT22;50657;48.830;2.282;2022-10-31T05:43:23;17.70;68.30
47354;DHT22;50657;48.830;2.282;2022-10-31T05:45:52;17.70;68.20
47354;DHT22;50657;48.830;2.282;2022-10-31T05:48:39;17.70;68.10
47354;DHT22;50657;48.830;2.282;2022-10-31T05:51:24;17.70;68.10
47354;DHT22;50657;48.830;2.282;2022-10-31T05:53:53;17.70;68.10
47354;DHT22;50657;48.830;2.282;2022-10-31T05:56:21;17.70;68.10
47354;DHT22;50657;48.830;2.282;2022-10-31T05:58:48;17.70;68.00
47354;DHT22;50657;48.830;2.282;2022-10-31T06:01:15;17.80;68.00
47354;DHT22;50657;48.830;2.282;2022-10-31T06:03:44;17.80;68.00
47354;DHT22;50657;48.830;2.282;2022-10-31T06:06:15;17.70;67.90
47354;DHT22;50657;48.830;2.282;2022-10-31T06:08:42;17.70;67.80
47354;DHT22;50657;48.830;2.282;2022-10-31T06:11:16;17.70;67.70
47354;DHT22;50657;48.830;2.282;2022-10-31T06:14:09;17.70;67.70
47354;DHT22;50657;48.830;2.282;2022-10-31T06:16:51;17.80;67.80
47354;DHT22;50657;48.830;2.282;2022-10-31T06:19:41;17.80;67.80
47354;DHT22;50657;48.830;2.282;2022-10-31T06:22:10;17.70;67.70
47354;DHT22;50657;48.830;2.282;2022-10-31T06:24:38;17.70;67.60
47354;DHT22;50657;48.830;2.282;2022-10-31T06:27:26;17.70;67.60
47354;DHT22;50657;48.830;2.282;2022-10-31T06:29:53;17.70;67.60
47354;DHT22;50657;48.830;2.282;2022-10-31T06:32:31;17.70;67.50
47354;DHT22;50657;48.830;2.282;2022-10-31T06:34:58;17.70;67.50
47354;DHT22;50657;48.830;2.282;2022-10-31T06:37:25;17.70;67.40
47354;DHT22;50657;48.830;2.282;2022-10-31T06:39:58;17.70;67.40
47354;DHT22;50657;48.830;2.282;2022-10-31T06:42:26;17.70;67.40
47354;DHT22;50657;48.830;2.282;2022-10-31T06:44:54;17.70;67.30
47354;DHT22;50657;48.830;2.282;2022-10-31T06:47:39;17.70;67.40
47354;DHT22;50657;48.830;2.282;2022-10-31T06:50:10;17.70;67.50
47354;DHT22;50657;48.830;2.282;2022-10-31T06:52:37;17.60;67.60
47354;DHT22;50657;48.830;2.282;2022-10-31T06:55:04;17.60;67.70
47354;DHT22;50657;48.830;2.282;2022-10-31T06:57:34;17.60;68.40
47354;DHT22;50657;48.830;2.282;2022-10-31T07:00:02;17.80;68.00
47354;DHT22;50657;48.830;2.282;2022-10-31T07:02:38;17.90;67.80
47354;DHT22;50657;48.830;2.282;2022-10-31T07:05:06;18.00;67.60
47354;DHT22;50657;48.830;2.282;2022-10-31T07:07:33;18.10;67.40
47354;DHT22;50657;48.830;2.282;2022-10-31T07:10:00;18.20;67.20
47354;DHT22;50657;48.830;2.282;2022-10-31T07:12:47;18.30;66.90
47354;DHT22;50657;48.830;2.282;2022-10-31T07:15:15;18.40;66.70
47354;DHT22;50657;48.830;2.282;2022-10-31T07:17:42;18.50;66.50
47354;DHT22;50657;48.830;2.282;2022-10-31T07:20:10;18.60;66.40
47354;DHT22;50657;48.830;2.282;2022-10-31T07:22:37;18.60;66.20
47354;DHT22;50657;48.830;2.282;2022-10-31T07:25:08;18.70;66.00
47354;DHT22;50657;48.830;2.282;2022-10-31T07:27:36;18.80;65.90
47354;DHT22;50657;48.830;2.282;2022-10-31T07:30:07;18.90;65.80
47354;DHT22;50657;48.830;2.282;2022-10-31T07:32:38;18.90;65.60
47354;DHT22;50657;48.830;2.282;2022-10-31T07:35:06;19.00;65.40
47354;DHT22;50657;48.830;2.282;2022-10-31T07:37:45;19.00;65.30
47354;DHT22;50657;48.830;2.282;2022-10-31T07:40:13;19.10;65.20
47354;DHT22;50657;48.830;2.282;2022-10-31T07:42:43;19.20;65.10
47354;DHT22;50657;48.830;2.282;2022-10-31T07:45:31;19.30;64.90
47354;DHT22;50657;48.830;2.282;2022-10-31T07:48:28;19.30;64.70
47354;DHT22;50657;48.830;2.282;2022-10-31T07:51:13;19.40;64.60
47354;DHT22;50657;48.830;2.282;2022-10-31T07:54:06;19.40;64.40
47354;DHT22;50657;48.830;2.282;2022-10-31T07:56:33;19.40;64.30
47354;DHT22;50657;48.830;2.282;2022-10-31T07:59:01;19.50;64.10
47354;DHT22;50657;48.830;2.282;2022-10-31T08:01:30;19.60;64.00
47354;DHT22;50657;48.830;2.282;2022-10-31T08:04:27;19.60;63.80
47354;DHT22;50657;48.830;2.282;2022-10-31T08:07:13;19.60;63.60
47354;DHT22;50657;48.830;2.282;2022-10-31T08:09:44;19.70;63.60
47354;DHT22;50657;48.830;2.282;2022-10-31T08:12:19;19.70;63.50
47354;DHT22;50657;48.830;2.282;2022-10-31T08:14:46;19.80;63.40
47354;DHT22;50657;48.830;2.282;2022-10-31T08:17:17;19.80;63.20
47354;DHT22;50657;48.830;2.282;2022-10-31T08:19:50;19.80;63.10
47354;DHT22;50657;48.830;2.282;2022-10-31T08:22:20;19.90;63.90
47354;DHT22;50657;48.830;2.282;2022-10-31T08:24:48;20.00;64.40
47354;DHT22;50657;48.830;2.282;2022-10-31T08:27:16;20.30;64.40
47354;DHT22;50657;48.830;2.282;2022-10-31T08:29:43;20.50;64.20
47354;DHT22;50657;48.830;2.282;2022-10-31T08:32:10;20.70;63.80
47354;DHT22;50657;48.830;2.282;2022-10-31T08:34:57;20.90;63.50
47354;DHT22;50657;48.830;2.282;2022-10-31T08:37:43;21.10;63.10
47354;DHT22;50657;48.830;2.282;2022-10-31T08:40:11;21.20;62.60
47354;DHT22;50657;48.830;2.282;2022-10-31T08:42:40;21.40;62.20
47354;DHT22;50657;48.830;2.282;2022-10-31T08:45:07;21.50;61.80
47354;DHT22;50657;48.830;2.282;2022-10-31T08:47:35;21.60;61.50
47354;DHT22;50657;48.830;2.282;2022-10-31T08:50:04;21.70;61.10
47354;DHT22;50657;48.830;2.282;2022-10-31T08:52:31;21.90;60.70
47354;DHT22;50657;48.830;2.282;2022-10-31T08:55:01;21.90;60.40
47354;DHT22;50657;48.830;2.282;2022-10-31T08:57:47;22.00;60.10
47354;DHT22;50657;48.830;2.282;2022-10-31T09:00:14;22.10;59.90
47354;DHT22;50657;48.830;2.282;2022-10-31T09:03:01;22.20;59.60
47354;DHT22;50657;48.830;2.282;2022-10-31T09:05:32;22.20;59.60
47354;DHT22;50657;48.830;2.282;2022-10-31T09:08:02;22.30;59.40
47354;DHT22;50657;48.830;2.282;2022-10-31T09:10:31;22.40;59.50
47354;DHT22;50657;48.830;2.282;2022-10-31T09:12:59;22.50;58.80
47354;DHT22;50657;48.830;2.282;2022-10-31T09:15:27;22.50;59.20
47354;DHT22;50657;48.830;2.282;2022-10-31T09:18:13;22.60;58.40
47354;DHT22;50657;48.830;2.282;2022-10-31T09:20:57;22.70;58.30
47354;DHT22;50657;48.830;2.282;2022-10-31T09:23:27;22.70;58.10
47354;DHT22;50657;48.830;2.282;2022-10-31T09:25:54;22.70;57.90
47354;DHT22;50657;48.830;2.282;2022-10-31T09:28:40;22.80;57.80
47354;DHT22;50657;48.830;2.282;2022-10-31T09:31:09;22.90;57.70
47354;DHT22;50657;48.830;2.282;2022-10-31T09:34:15;22.90;57.50
47354;DHT22;50657;48.830;2.282;2022-10-31T09:36:47;23.00;57.40
47354;DHT22;50657;48.830;2.282;2022-10-31T09:39:19;23.00;57.20
47354;DHT22;50657;48.830;2.282;2022-10-31T09:42:07;23.10;57.10
47354;DHT22;50657;48.830;2.282;2022-10-31T09:44:46;23.10;56.80
47354;DHT22;50657;48.830;2.282;2022-10-31T09:47:29;23.20;56.70
47354;DHT22;50657;48.830;2.282;2022-10-31T09:50:27;23.20;56.70
47354;DHT22;50657;48.830;2.282;2022-10-31T09:53:09;23.20;56.50
47354;DHT22;50657;48.830;2.282;2022-10-31T09:55:40;23.30;56.40
47354;DHT22;50657;48.830;2.282;2022-10-31T09:58:10;23.30;56.40
47354;DHT22;50657;48.830;2.282;2022-10-31T10:00:42;23.40;56.30
47354;DHT22;50657;48.830;2.282;2022-10-31T10:03:15;23.40;56.20
47354;DHT22;50657;48.830;2.282;2022-10-31T10:05:52;23.50;56.20
47354;DHT22;50657;48.830;2.282;2022-10-31T10:08:35;23.50;56.10
47354;DHT22;50657;48.830;2.282;2022-10-31T10:11:45;23.60;56.10
47354;DHT22;50657;48.830;2.282;2022-10-31T10:14:32;23.60;55.90
47354;DHT22;50657;48.830;2.282;2022-10-31T10:17:15;23.70;55.60
47354;DHT22;50657;48.830;2.282;2022-10-31T10:19:55;23.70;55.40
47354;DHT22;50657;48.830;2.282;2022-10-31T10:22:34;23.80;55.20
47354;DHT22;50657;48.830;2.282;2022-10-31T10:25:16;23.90;55.20
47354;DHT22;50657;48.830;2.282;2022-10-31T10:27:52;23.90;55.00
47354;DHT22;50657;48.830;2.282;2022-10-31T10:30:26;23.90;55.00
47354;DHT22;50657;48.830;2.282;2022-10-31T10:32:59;23.90;54.90
47354;DHT22;50657;48.830;2.282;2022-10-31T10:35:30;24.00;54.80
47354;DHT22;50657;48.830;2.282;2022-10-31T10:38:02;24.00;54.70
47354;DHT22;50657;48.830;2.282;2022-10-31T10:40:37;24.10;54.60
47354;DHT22;50657;48.830;2.282;2022-10-31T10:43:20;24.10;55.00
47354;DHT22;50657;48.830;2.282;2022-10-31T10:46:05;24.10;54.20
47354;DHT22;50657;48.830;2.282;2022-10-31T10:48:58;24.20;54.00
47354;DHT22;50657;48.830;2.282;2022-10-31T10:51:33;24.20;53.90
47354;DHT22;50657;48.830;2.282;2022-10-31T10:54:05;24.20;53.60
47354;DHT22;50657;48.830;2.282;2022-10-31T10:56:54;24.20;53.90
47354;DHT22;50657;48.830;2.282;2022-10-31T10:59:23;24.30;53.70
47354;DHT22;50657;48.830;2.282;2022-10-31T11:01:51;24.30;53.60
47354;DHT22;50657;48.830;2.282;2022-10-31T11:04:26;24.40;54.10
47354;DHT22;50657;48.830;2.282;2022-10-31T11:07:04;24.40;53.30
47354;DHT22;50657;48.830;2.282;2022-10-31T11:09:32;24.50;53.20
47354;DHT22;50657;48.830;2.282;2022-10-31T11:12:07;24.50;53.10
47354;DHT22;50657;48.830;2.282;2022-10-31T11:14:37;24.60;53.00
47354;DHT22;50657;48.830;2.282;2022-10-31T11:17:16;24.60;52.90
47354;DHT22;50657;48.830;2.282;2022-10-31T11:19:44;24.70;52.90
47354;DHT22;50657;48.830;2.282;2022-10-31T11:22:15;24.70;52.80
47354;DHT22;50657;48.830;2.282;2022-10-31T11:24:43;24.80;52.70
47354;DHT22;50657;48.830;2.282;2022-10-31T11:27:19;24.80;52.60
47354;DHT22;50657;48.830;2.282;2022-10-31T11:29:46;24.90;52.50
47354;DHT22;50657;48.830;2.282;2022-10-31T11:32:19;24.90;52.60
47354;DHT22;50657;48.830;2.282;2022-10-31T11:34:49;24.90;52.40
47354;DHT22;50657;48.830;2.282;2022-10-31T11:37:20;25.00;52.30
47354;DHT22;50657;48.830;2.282;2022-10-31T11:39:50;25.00;52.20
47354;DHT22;50657;48.830;2.282;2022-10-31T11:42:23;25.20;52.10
47354;DHT22;50657;48.830;2.282;2022-10-31T11:44:53;25.20;52.00
47354;DHT22;50657;48.830;2.282;2022-10-31T11:47:25;25.20;51.80
47354;DHT22;50657;48.830;2.282;2022-10-31T11:49:53;25.30;51.70
47354;DHT22;50657;48.830;2.282;2022-10-31T11:52:22;25.30;51.60
47354;DHT22;50657;48.830;2.282;2022-10-31T11:54:53;25.30;51.50
47354;DHT22;50657;48.830;2.282;2022-10-31T11:57:27;25.40;51.40
47354;DHT22;50657;48.830;2.282;2022-10-31T11:59:56;25.50;51.30
47354;DHT22;50657;48.830;2.282;2022-10-31T12:02:24;25.50;51.20
47354;DHT22;50657;48.830;2.282;2022-10-31T12:04:58;25.60;51.20
47354;DHT22;50657;48.830;2.282;2022-10-31T12:07:26;25.60;51.00
47354;DHT22;50657;48.830;2.282;2022-10-31T12:09:53;25.60;51.00
47354;DHT22;50657;48.830;2.282;2022-10-31T12:12:37;25.70;50.90
47354;DHT22;50657;48.830;2.282;2022-10-31T12:15:22;25.70;50.80
47354;DHT22;50657;48.830;2.282;2022-10-31T12:17:58;25.70;50.70
47354;DHT22;50657;48.830;2.282;2022-10-31T12:20:35;25.80;50.70
47354;DHT22;50657;48.830;2.282;2022-10-31T12:23:09;25.80;50.60
47354;DHT22;50657;48.830;2.282;2022-10-31T12:25:43;25.80;50.40
47354;DHT22;50657;48.830;2.282;2022-10-31T12:28:39;25.90;50.40
47354;DHT22;50657;48.830;2.282;2022-10-31T12:31:20;25.90;50.30
47354;DHT22;50657;48.830;2.282;2022-10-31T12:33:59;26.00;50.30
47354;DHT22;50657;48.830;2.282;2022-10-31T12:36:34;26.00;50.20
47354;DHT22;50657;48.830;2.282;2022-10-31T12:42:07;26.00;50.00
47354;DHT22;50657;48.830;2.282;2022-10-31T12:47:35;26.10;50.20
47354;DHT22;50657;48.830;2.282;2022-10-31T12:50:16;26.10;50.10
47354;DHT22;50657;48.830;2.282;2022-10-31T12:52:55;26.20;50.00
47354;DHT22;50657;48.830;2.282;2022-10-31T12:55:37;26.20;49.90
47354;DHT22;50657;48.830;2.282;2022-10-31T12:58:09;26.30;49.90
47354;DHT22;50657;48.830;2.282;2022-10-31T13:00:39;26.30;49.80
47354;DHT22;50657;48.830;2.282;2022-10-31T13:03:20;26.30;49.70
47354;DHT22;50657;48.830;2.282;2022-10-31T13:05:52;26.30;49.60
47354;DHT22;50657;48.830;2.282;2022-10-31T13:08:22;26.30;49.60
47354;DHT22;50657;48.830;2.282;2022-10-31T13:10:55;26.30;49.60
47354;DHT22;50657;48.830;2.282;2022-10-31T13:13:26;26.30;49.50
47354;DHT22;50657;48.830;2.282;2022-10-31T13:15:56;26.30;49.50
47354;DHT22;50657;48.830;2.282;2022-10-31T13:18:29;26.40;49.40
47354;DHT22;50657;48.830;2.282;2022-10-31T13:20:59;26.50;49.40
47354;DHT22;50657;48.830;2.282;2022-10-31T13:23:29;26.50;49.30
47354;DHT22;50657;48.830;2.282;2022-10-31T13:25:57;26.60;49.30
47354;DHT22;50657;48.830;2.282;2022-10-31T13:28:36;26.60;49.20
47354;DHT22;50657;48.830;2.282;2022-10-31T13:31:05;26.60;49.40
47354;DHT22;50657;48.830;2.282;2022-10-31T13:33:37;26.70;49.50
47354;DHT22;50657;48.830;2.282;2022-10-31T13:36:21;26.70;49.50
47354;DHT22;50657;48.830;2.282;2022-10-31T13:38:52;26.70;49.70
47354;DHT22;50657;48.830;2.282;2022-10-31T13:41:31;26.70;49.80
47354;DHT22;50657;48.830;2.282;2022-10-31T13:44:02;26.70;50.40
47354;DHT22;50657;48.830;2.282;2022-10-31T13:46:38;26.70;50.80
47354;DHT22;50657;48.830;2.282;2022-10-31T13:52:13;26.80;51.10
47354;DHT22;50657;48.830;2.282;2022-10-31T13:54:42;26.80;51.10
47354;DHT22;50657;48.830;2.282;2022-10-31T13:57:16;26.90;51.30
47354;DHT22;50657;48.830;2.282;2022-10-31T13:59:49;26.90;51.70
47354;DHT22;50657;48.830;2.282;2022-10-31T14:02:25;27.00;51.70
47354;DHT22;50657;48.830;2.282;2022-10-31T14:04:56;27.00;52.10
47354;DHT22;50657;48.830;2.282;2022-10-31T14:07:26;27.00;52.00
47354;DHT22;50657;48.830;2.282;2022-10-31T14:09:56;26.90;51.70
47354;DHT22;50657;48.830;2.282;2022-10-31T14:12:28;26.90;51.60
47354;DHT22;50657;48.830;2.282;2022-10-31T14:15:00;27.00;51.60
47354;DHT22;50657;48.830;2.282;2022-10-31T14:17:38;26.90;51.30
47354;DHT22;50657;48.830;2.282;2022-10-31T14:20:34;27.00;51.20
47354;DHT22;50657;48.830;2.282;2022-10-31T14:23:33;27.00;51.00
47354;DHT22;50657;48.830;2.282;2022-10-31T14:26:20;26.90;50.90
47354;DHT22;50657;48.830;2.282;2022-10-31T14:28:49;26.90;50.80
47354;DHT22;50657;48.830;2.282;2022-10-31T14:31:32;26.90;50.70
47354;DHT22;50657;48.830;2.282;2022-10-31T14:34:04;26.90;50.50
47354;DHT22;50657;48.830;2.282;2022-10-31T14:36:38;26.90;50.80
47354;DHT22;50657;48.830;2.282;2022-10-31T14:39:15;26.90;50.50
47354;DHT22;50657;48.830;2.282;2022-10-31T14:41:55;26.80;50.30
47354;DHT22;50657;48.830;2.282;2022-10-31T14:44:50;26.80;50.40
47354;DHT22;50657;48.830;2.282;2022-10-31T14:47:27;26.80;50.30
47354;DHT22;50657;48.830;2.282;2022-10-31T14:50:17;26.80;50.30
47354;DHT22;50657;48.830;2.282;2022-10-31T14:52:49;26.70;50.20
47354;DHT22;50657;48.830;2.282;2022-10-31T14:55:18;26.70;50.20
47354;DHT22;50657;48.830;2.282;2022-10-31T14:57:50;26.70;50.20
47354;DHT22;50657;48.830;2.282;2022-10-31T15:00:20;26.70;50.20
47354;DHT22;50657;48.830;2.282;2022-10-31T15:02:55;26.70;50.20
47354;DHT22;50657;48.830;2.282;2022-10-31T15:05:26;26.70;50.20
47354;DHT22;50657;48.830;2.282;2022-10-31T15:07:54;26.60;50.10
47354;DHT22;50657;48.830;2.282;2022-10-31T15:10:26;26.60;50.10
47354;DHT22;50657;48.830;2.282;2022-10-31T15:12:55;26.60;50.10
47354;DHT22;50657;48.830;2.282;2022-10-31T15:15:24;26.60;50.00
47354;DHT22;50657;48.830;2.282;2022-10-31T15:17:54;26.50;49.70
47354;DHT22;50657;48.830;2.282;2022-10-31T15:20:24;26.50;49.40
47354;DHT22;50657;48.830;2.282;2022-10-31T15:22:54;26.50;49.30
47354;DHT22;50657;48.830;2.282;2022-10-31T15:25:26;26.50;49.20
47354;DHT22;50657;48.830;2.282;2022-10-31T15:27:54;26.40;48.90
47354;DHT22;50657;48.830;2.282;2022-10-31T15:30:23;26.40;49.20
47354;DHT22;50657;48.830;2.282;2022-10-31T15:32:51;26.30;48.90
47354;DHT22;50657;48.830;2.282;2022-10-31T15:35:22;26.30;48.90
47354;DHT22;50657;48.830;2.282;2022-10-31T15:37:51;26.20;48.90
47354;DHT22;50657;48.830;2.282;2022-10-31T15:40:20;26.20;49.10
47354;DHT22;50657;48.830;2.282;2022-10-31T15:42:51;26.10;49.10
47354;DHT22;50657;48.830;2.282;2022-10-31T15:45:23;26.00;49.80
47354;DHT22;50657;48.830;2.282;2022-10-31T15:47:55;26.00;49.30
47354;DHT22;50657;48.830;2.282;2022-10-31T15:50:29;25.90;49.40
47354;DHT22;50657;48.830;2.282;2022-10-31T15:52:57;25.90;49.50
47354;DHT22;50657;48.830;2.282;2022-10-31T15:55:26;25.80;49.50
47354;DHT22;50657;48.830;2.282;2022-10-31T15:57:56;25.80;49.70
47354;DHT22;50657;48.830;2.282;2022-10-31T16:00:26;25.70;49.70
47354;DHT22;50657;48.830;2.282;2022-10-31T16:03:04;25.60;49.80
47354;DHT22;50657;48.830;2.282;2022-10-31T16:05:37;25.70;50.00
47354;DHT22;50657;48.830;2.282;2022-10-31T16:08:19;25.60;50.00
47354;DHT22;50657;48.830;2.282;2022-10-31T16:10:48;25.50;50.10
47354;DHT22;50657;48.830;2.282;2022-10-31T16:13:17;25.40;50.10
47354;DHT22;50657;48.830;2.282;2022-10-31T16:15:48;25.40;50.20
47354;DHT22;50657;48.830;2.282;2022-10-31T16:18:16;25.40;50.30
47354;DHT22;50657;48.830;2.282;2022-10-31T16:20:48;25.30;50.40